sensor_id;sensor_type;location;lat;lon;timestamp;P1;durP1;ratioP1;P2;durP2;ratioP2
15067;SDS011;7633;60.024;18.770;2022-07-23T00:01:31;5.20;;;2.70;;
15067;SDS011;7633;60.024;18.770;2022-07-23T00:03:56;5.07;;;2.60;;
15067;SDS011;7633;60.024;18.770;2022-07-23T00:06:22;7.25;;;2.67;;
15067;SDS011;7633;60.024;18.770;2022-07-23T00:08:48;4.82;;;2.38;;
15067;SDS011;7633;60.024;18.770;2022-07-23T00:11:13;5.85;;;2.80;;
15067;SDS011;7633;60.024;18.770;2022-07-23T00:13:38;3.90;;;2.33;;
15067;SDS011;7633;60.024;18.770;2022-07-23T00:16:04;8.02;;;3.05;;
15067;SDS011;7633;60.024;18.770;2022-07-23T00:18:30;4.32;;;2.30;;
15067;SDS011;7633;60.024;18.770;2022-07-23T00:20:55;6.57;;;2.67;;
15067;SDS011;7633;60.024;18.770;2022-07-23T00:23:21;5.22;;;2.63;;
15067;SDS011;7633;60.024;18.770;2022-07-23T00:25:46;6.43;;;3.67;;
15067;SDS011;7633;60.024;18.770;2022-07-23T00:28:12;3.83;;;2.25;;
15067;SDS011;7633;60.024;18.770;2022-07-23T00:30:37;5.05;;;2.63;;
15067;SDS011;7633;60.024;18.770;2022-07-23T00:33:06;5.57;;;2.65;;
15067;SDS011;7633;60.024;18.770;2022-07-23T00:35:33;3.47;;;2.40;;
15067;SDS011;7633;60.024;18.770;2022-07-23T00:37:59;5.75;;;2.22;;
15067;SDS011;7633;60.024;18.770;2022-07-23T00:40:25;4.47;;;1.90;;
15067;SDS011;7633;60.024;18.770;2022-07-23T00:42:50;6.45;;;2.70;;
15067;SDS011;7633;60.024;18.770;2022-07-23T00:45:16;6.43;;;3.20;;
15067;SDS011;7633;60.024;18.770;2022-07-23T00:47:41;5.30;;;2.58;;
15067;SDS011;7633;60.024;18.770;2022-07-23T00:50:07;5.80;;;2.22;;
15067;SDS011;7633;60.024;18.770;2022-07-23T00:52:34;4.97;;;2.60;;
15067;SDS011;7633;60.024;18.770;2022-07-23T00:54:59;4.82;;;2.00;;
15067;SDS011;7633;60.024;18.770;2022-07-23T00:57:25;4.75;;;2.08;;
15067;SDS011;7633;60.024;18.770;2022-07-23T00:59:50;5.97;;;2.50;;
15067;SDS011;7633;60.024;18.770;2022-07-23T01:02:16;4.18;;;2.20;;
15067;SDS011;7633;60.024;18.770;2022-07-23T01:04:41;3.35;;;2.00;;
15067;SDS011;7633;60.024;18.770;2022-07-23T01:07:07;2.92;;;1.67;;
15067;SDS011;7633;60.024;18.770;2022-07-23T01:09:32;4.78;;;2.03;;
15067;SDS011;7633;60.024;18.770;2022-07-23T01:11:57;3.60;;;1.70;;
15067;SDS011;7633;60.024;18.770;2022-07-23T01:14:23;3.30;;;1.70;;
15067;SDS011;7633;60.024;18.770;2022-07-23T01:16:49;4.00;;;2.08;;
15067;SDS011;7633;60.024;18.770;2022-07-23T01:19:15;2.70;;;1.70;;
15067;SDS011;7633;60.024;18.770;2022-07-23T01:21:42;3.30;;;1.83;;
15067;SDS011;7633;60.024;18.770;2022-07-23T01:24:08;3.92;;;1.58;;
15067;SDS011;7633;60.024;18.770;2022-07-23T01:26:34;2.60;;;1.60;;
15067;SDS011;7633;60.024;18.770;2022-07-23T01:28:59;3.47;;;1.63;;
15067;SDS011;7633;60.024;18.770;2022-07-23T01:31:25;2.10;;;1.30;;
15067;SDS011;7633;60.024;18.770;2022-07-23T01:33:50;3.33;;;1.33;;
15067;SDS011;7633;60.024;18.770;2022-07-23T01:36:15;2.03;;;1.33;;
15067;SDS011;7633;60.024;18.770;2022-07-23T01:38:41;1.45;;;1.23;;
15067;SDS011;7633;60.024;18.770;2022-07-23T01:41:07;2.85;;;1.20;;
15067;SDS011;7633;60.024;18.770;2022-07-23T01:43:32;2.83;;;1.30;;
15067;SDS011;7633;60.024;18.770;2022-07-23T01:45:58;2.47;;;1.33;;
15067;SDS011;7633;60.024;18.770;2022-07-23T01:48:23;3.38;;;1.35;;
15067;SDS011;7633;60.024;18.770;2022-07-23T01:50:49;2.20;;;1.23;;
15067;SDS011;7633;60.024;18.770;2022-07-23T01:53:14;2.42;;;1.55;;
15067;SDS011;7633;60.024;18.770;2022-07-23T01:55:41;2.97;;;1.20;;
15067;SDS011;7633;60.024;18.770;2022-07-23T01:58:06;2.25;;;1.23;;
15067;SDS011;7633;60.024;18.770;2022-07-23T02:00:32;2.15;;;1.10;;
15067;SDS011;7633;60.024;18.770;2022-07-23T02:02:57;3.42;;;1.30;;
15067;SDS011;7633;60.024;18.770;2022-07-23T02:05:26;2.58;;;1.15;;
15067;SDS011;7633;60.024;18.770;2022-07-23T02:07:54;3.00;;;1.40;;
15067;SDS011;7633;60.024;18.770;2022-07-23T02:10:20;2.17;;;1.27;;
15067;SDS011;7633;60.024;18.770;2022-07-23T02:12:46;1.92;;;1.08;;
15067;SDS011;7633;60.024;18.770;2022-07-23T02:15:11;1.98;;;1.20;;
15067;SDS011;7633;60.024;18.770;2022-07-23T02:17:37;2.17;;;1.10;;
15067;SDS011;7633;60.024;18.770;2022-07-23T02:20:03;3.63;;;1.08;;
15067;SDS011;7633;60.024;18.770;2022-07-23T02:22:32;1.10;;;0.98;;
15067;SDS011;7633;60.024;18.770;2022-07-23T02:24:57;1.52;;;1.10;;
15067;SDS011;7633;60.024;18.770;2022-07-23T02:27:23;1.88;;;1.05;;
15067;SDS011;7633;60.024;18.770;2022-07-23T02:29:48;1.33;;;1.00;;
15067;SDS011;7633;60.024;18.770;2022-07-23T02:32:14;2.45;;;1.20;;
15067;SDS011;7633;60.024;18.770;2022-07-23T02:34:39;1.85;;;1.02;;
15067;SDS011;7633;60.024;18.770;2022-07-23T02:37:04;1.25;;;1.02;;
15067;SDS011;7633;60.024;18.770;2022-07-23T02:39:30;1.30;;;0.90;;
15067;SDS011;7633;60.024;18.770;2022-07-23T02:41:55;1.65;;;0.85;;
15067;SDS011;7633;60.024;18.770;2022-07-23T02:44:20;1.40;;;1.13;;
15067;SDS011;7633;60.024;18.770;2022-07-23T02:46:46;1.35;;;0.70;;
15067;SDS011;7633;60.024;18.770;2022-07-23T02:49:11;2.05;;;1.17;;
15067;SDS011;7633;60.024;18.770;2022-07-23T02:51:36;2.15;;;1.00;;
15067;SDS011;7633;60.024;18.770;2022-07-23T02:54:02;2.90;;;1.05;;
15067;SDS011;7633;60.024;18.770;2022-07-23T02:56:27;2.45;;;1.02;;
15067;SDS011;7633;60.024;18.770;2022-07-23T02:58:52;2.38;;;1.20;;
15067;SDS011;7633;60.024;18.770;2022-07-23T03:01:18;1.50;;;1.05;;
15067;SDS011;7633;60.024;18.770;2022-07-23T03:03:43;2.03;;;1.08;;
15067;SDS011;7633;60.024;18.770;2022-07-23T03:06:08;1.60;;;1.25;;
15067;SDS011;7633;60.024;18.770;2022-07-23T03:08:34;1.42;;;1.00;;
15067;SDS011;7633;60.024;18.770;2022-07-23T03:10:59;1.55;;;1.08;;
15067;SDS011;7633;60.024;18.770;2022-07-23T03:13:24;1.67;;;1.10;;
15067;SDS011;7633;60.024;18.770;2022-07-23T03:15:50;3.03;;;1.20;;
15067;SDS011;7633;60.024;18.770;2022-07-23T03:18:17;2.40;;;1.20;;
15067;SDS011;7633;60.024;18.770;2022-07-23T03:20:42;1.33;;;1.20;;
15067;SDS011;7633;60.024;18.770;2022-07-23T03:23:08;4.10;;;1.30;;
15067;SDS011;7633;60.024;18.770;2022-07-23T03:25:33;3.00;;;1.17;;
15067;SDS011;7633;60.024;18.770;2022-07-23T03:27:59;2.38;;;1.10;;
15067;SDS011;7633;60.024;18.770;2022-07-23T03:30:24;1.55;;;1.10;;
15067;SDS011;7633;60.024;18.770;2022-07-23T03:32:49;2.75;;;1.00;;
15067;SDS011;7633;60.024;18.770;2022-07-23T03:35:15;1.77;;;1.10;;
15067;SDS011;7633;60.024;18.770;2022-07-23T03:37:40;1.67;;;1.00;;
15067;SDS011;7633;60.024;18.770;2022-07-23T03:40:06;1.45;;;0.98;;
15067;SDS011;7633;60.024;18.770;2022-07-23T03:42:31;1.95;;;1.20;;
15067;SDS011;7633;60.024;18.770;2022-07-23T03:44:56;1.52;;;0.80;;
15067;SDS011;7633;60.024;18.770;2022-07-23T03:47:23;2.05;;;1.00;;
15067;SDS011;7633;60.024;18.770;2022-07-23T03:49:48;1.98;;;1.10;;
15067;SDS011;7633;60.024;18.770;2022-07-23T03:52:14;1.77;;;1.02;;
15067;SDS011;7633;60.024;18.770;2022-07-23T03:54:39;1.73;;;1.00;;
15067;SDS011;7633;60.024;18.770;2022-07-23T03:57:04;2.05;;;1.05;;
15067;SDS011;7633;60.024;18.770;2022-07-23T03:59:30;3.10;;;1.45;;
15067;SDS011;7633;60.024;18.770;2022-07-23T04:01:55;1.55;;;1.17;;
15067;SDS011;7633;60.024;18.770;2022-07-23T04:04:21;1.50;;;1.00;;
15067;SDS011;7633;60.024;18.770;2022-07-23T04:06:46;2.47;;;1.20;;
15067;SDS011;7633;60.024;18.770;2022-07-23T04:09:11;3.00;;;1.38;;
15067;SDS011;7633;60.024;18.770;2022-07-23T04:11:37;1.98;;;1.55;;
15067;SDS011;7633;60.024;18.770;2022-07-23T04:14:02;1.75;;;1.00;;
15067;SDS011;7633;60.024;18.770;2022-07-23T04:16:28;1.98;;;1.10;;
15067;SDS011;7633;60.024;18.770;2022-07-23T04:18:53;2.63;;;1.27;;
15067;SDS011;7633;60.024;18.770;2022-07-23T04:21:20;1.30;;;1.20;;
15067;SDS011;7633;60.024;18.770;2022-07-23T04:23:45;3.92;;;1.38;;
15067;SDS011;7633;60.024;18.770;2022-07-23T04:26:11;2.47;;;1.23;;
15067;SDS011;7633;60.024;18.770;2022-07-23T04:28:36;3.60;;;1.15;;
15067;SDS011;7633;60.024;18.770;2022-07-23T04:31:01;1.77;;;1.00;;
15067;SDS011;7633;60.024;18.770;2022-07-23T04:33:27;2.42;;;1.35;;
15067;SDS011;7633;60.024;18.770;2022-07-23T04:35:52;1.50;;;1.30;;
15067;SDS011;7633;60.024;18.770;2022-07-23T04:38:17;3.03;;;1.40;;
15067;SDS011;7633;60.024;18.770;2022-07-23T04:40:43;2.90;;;1.38;;
15067;SDS011;7633;60.024;18.770;2022-07-23T04:43:08;2.63;;;1.30;;
15067;SDS011;7633;60.024;18.770;2022-07-23T04:45:33;4.70;;;1.40;;
15067;SDS011;7633;60.024;18.770;2022-07-23T04:47:59;3.45;;;1.55;;
15067;SDS011;7633;60.024;18.770;2022-07-23T04:50:24;1.60;;;0.90;;
15067;SDS011;7633;60.024;18.770;2022-07-23T04:52:50;1.02;;;0.80;;
15067;SDS011;7633;60.024;18.770;2022-07-23T04:55:15;1.75;;;1.23;;
15067;SDS011;7633;60.024;18.770;2022-07-23T04:57:41;1.85;;;1.00;;
15067;SDS011;7633;60.024;18.770;2022-07-23T05:00:06;1.27;;;0.90;;
15067;SDS011;7633;60.024;18.770;2022-07-23T05:02:32;1.10;;;0.73;;
15067;SDS011;7633;60.024;18.770;2022-07-23T05:04:58;1.00;;;0.90;;
15067;SDS011;7633;60.024;18.770;2022-07-23T05:07:23;1.05;;;0.70;;
15067;SDS011;7633;60.024;18.770;2022-07-23T05:09:49;1.27;;;0.90;;
15067;SDS011;7633;60.024;18.770;2022-07-23T05:12:14;1.25;;;1.15;;
15067;SDS011;7633;60.024;18.770;2022-07-23T05:14:40;0.60;;;0.60;;
15067;SDS011;7633;60.024;18.770;2022-07-23T05:17:05;0.60;;;0.60;;
15067;SDS011;7633;60.024;18.770;2022-07-23T05:19:32;0.50;;;0.50;;
15067;SDS011;7633;60.024;18.770;2022-07-23T05:21:57;0.40;;;0.35;;
15067;SDS011;7633;60.024;18.770;2022-07-23T05:24:23;0.90;;;0.50;;
15067;SDS011;7633;60.024;18.770;2022-07-23T05:26:49;0.60;;;0.60;;
15067;SDS011;7633;60.024;18.770;2022-07-23T05:29:15;0.75;;;0.50;;
15067;SDS011;7633;60.024;18.770;2022-07-23T05:31:40;0.40;;;0.40;;
15067;SDS011;7633;60.024;18.770;2022-07-23T05:34:05;0.50;;;0.40;;
15067;SDS011;7633;60.024;18.770;2022-07-23T05:36:31;0.40;;;0.40;;
15067;SDS011;7633;60.024;18.770;2022-07-23T05:38:56;1.20;;;0.50;;
15067;SDS011;7633;60.024;18.770;2022-07-23T05:41:22;0.40;;;0.40;;
15067;SDS011;7633;60.024;18.770;2022-07-23T05:43:47;0.88;;;0.40;;
15067;SDS011;7633;60.024;18.770;2022-07-23T05:46:13;0.55;;;0.50;;
15067;SDS011;7633;60.024;18.770;2022-07-23T05:48:38;0.30;;;0.30;;
15067;SDS011;7633;60.024;18.770;2022-07-23T05:51:03;0.57;;;0.40;;
15067;SDS011;7633;60.024;18.770;2022-07-23T05:53:31;0.43;;;0.30;;
15067;SDS011;7633;60.024;18.770;2022-07-23T05:55:57;0.43;;;0.40;;
15067;SDS011;7633;60.024;18.770;2022-07-23T05:58:22;1.13;;;0.38;;
15067;SDS011;7633;60.024;18.770;2022-07-23T06:00:47;0.52;;;0.40;;
15067;SDS011;7633;60.024;18.770;2022-07-23T06:03:14;0.30;;;0.30;;
15067;SDS011;7633;60.024;18.770;2022-07-23T06:05:39;0.30;;;0.30;;
15067;SDS011;7633;60.024;18.770;2022-07-23T06:08:04;0.40;;;0.40;;
15067;SDS011;7633;60.024;18.770;2022-07-23T06:10:30;0.40;;;0.40;;
15067;SDS011;7633;60.024;18.770;2022-07-23T06:12:55;0.30;;;0.30;;
15067;SDS011;7633;60.024;18.770;2022-07-23T06:15:20;0.40;;;0.40;;
15067;SDS011;7633;60.024;18.770;2022-07-23T06:17:46;0.35;;;0.32;;
15067;SDS011;7633;60.024;18.770;2022-07-23T06:20:11;0.40;;;0.40;;
15067;SDS011;7633;60.024;18.770;2022-07-23T06:22:37;0.35;;;0.35;;
15067;SDS011;7633;60.024;18.770;2022-07-23T06:25:02;0.77;;;0.30;;
15067;SDS011;7633;60.024;18.770;2022-07-23T06:27:28;0.30;;;0.30;;
15067;SDS011;7633;60.024;18.770;2022-07-23T06:29:53;0.98;;;0.35;;
15067;SDS011;7633;60.024;18.770;2022-07-23T06:32:19;0.30;;;0.30;;
15067;SDS011;7633;60.024;18.770;2022-07-23T06:34:44;0.30;;;0.30;;
15067;SDS011;7633;60.024;18.770;2022-07-23T06:37:09;0.30;;;0.30;;
15067;SDS011;7633;60.024;18.770;2022-07-23T06:39:35;0.30;;;0.30;;
15067;SDS011;7633;60.024;18.770;2022-07-23T06:42:00;0.40;;;0.30;;
15067;SDS011;7633;60.024;18.770;2022-07-23T06:44:26;0.30;;;0.30;;
15067;SDS011;7633;60.024;18.770;2022-07-23T06:46:51;0.30;;;0.30;;
15067;SDS011;7633;60.024;18.770;2022-07-23T06:49:17;0.50;;;0.50;;
15067;SDS011;7633;60.024;18.770;2022-07-23T06:51:42;0.30;;;0.30;;
15067;SDS011;7633;60.024;18.770;2022-07-23T06:54:07;1.00;;;0.30;;
15067;SDS011;7633;60.024;18.770;2022-07-23T06:56:33;0.30;;;0.30;;
15067;SDS011;7633;60.024;18.770;2022-07-23T06:58:58;0.30;;;0.30;;
15067;SDS011;7633;60.024;18.770;2022-07-23T07:01:24;0.30;;;0.30;;
15067;SDS011;7633;60.024;18.770;2022-07-23T07:03:49;1.00;;;0.35;;
15067;SDS011;7633;60.024;18.770;2022-07-23T07:06:14;1.38;;;0.45;;
15067;SDS011;7633;60.024;18.770;2022-07-23T07:08:40;0.30;;;0.30;;
15067;SDS011;7633;60.024;18.770;2022-07-23T07:11:06;0.30;;;0.30;;
15067;SDS011;7633;60.024;18.770;2022-07-23T07:13:33;0.40;;;0.40;;
15067;SDS011;7633;60.024;18.770;2022-07-23T07:15:58;0.40;;;0.40;;
15067;SDS011;7633;60.024;18.770;2022-07-23T07:18:24;0.43;;;0.40;;
15067;SDS011;7633;60.024;18.770;2022-07-23T07:20:49;0.47;;;0.40;;
15067;SDS011;7633;60.024;18.770;2022-07-23T07:23:14;0.50;;;0.50;;
15067;SDS011;7633;60.024;18.770;2022-07-23T07:25:40;0.40;;;0.40;;
15067;SDS011;7633;60.024;18.770;2022-07-23T07:28:05;0.52;;;0.47;;
15067;SDS011;7633;60.024;18.770;2022-07-23T07:30:32;0.90;;;0.52;;
15067;SDS011;7633;60.024;18.770;2022-07-23T07:32:57;0.75;;;0.60;;
15067;SDS011;7633;60.024;18.770;2022-07-23T07:35:24;0.82;;;0.60;;
15067;SDS011;7633;60.024;18.770;2022-07-23T07:37:50;1.85;;;0.60;;
15067;SDS011;7633;60.024;18.770;2022-07-23T07:40:15;0.80;;;0.60;;
15067;SDS011;7633;60.024;18.770;2022-07-23T07:42:44;1.35;;;0.75;;
15067;SDS011;7633;60.024;18.770;2022-07-23T07:45:09;2.53;;;0.82;;
15067;SDS011;7633;60.024;18.770;2022-07-23T07:47:35;1.38;;;0.90;;
15067;SDS011;7633;60.024;18.770;2022-07-23T07:50:00;1.15;;;0.82;;
15067;SDS011;7633;60.024;18.770;2022-07-23T07:52:26;0.98;;;0.77;;
15067;SDS011;7633;60.024;18.770;2022-07-23T07:54:51;0.95;;;0.70;;
15067;SDS011;7633;60.024;18.770;2022-07-23T07:57:17;1.27;;;0.80;;
15067;SDS011;7633;60.024;18.770;2022-07-23T07:59:44;0.75;;;0.60;;
15067;SDS011;7633;60.024;18.770;2022-07-23T08:02:09;1.10;;;0.60;;
15067;SDS011;7633;60.024;18.770;2022-07-23T08:04:36;1.40;;;0.57;;
15067;SDS011;7633;60.024;18.770;2022-07-23T08:07:02;0.40;;;0.40;;
15067;SDS011;7633;60.024;18.770;2022-07-23T08:09:27;0.50;;;0.50;;
15067;SDS011;7633;60.024;18.770;2022-07-23T08:11:52;0.45;;;0.45;;
15067;SDS011;7633;60.024;18.770;2022-07-23T08:14:19;1.00;;;0.50;;
15067;SDS011;7633;60.024;18.770;2022-07-23T08:16:47;0.75;;;0.50;;
15067;SDS011;7633;60.024;18.770;2022-07-23T08:19:13;0.45;;;0.40;;
15067;SDS011;7633;60.024;18.770;2022-07-23T08:21:40;1.00;;;0.60;;
15067;SDS011;7633;60.024;18.770;2022-07-23T08:24:05;0.80;;;0.55;;
15067;SDS011;7633;60.024;18.770;2022-07-23T08:26:31;1.20;;;0.45;;
15067;SDS011;7633;60.024;18.770;2022-07-23T08:28:56;0.50;;;0.50;;
15067;SDS011;7633;60.024;18.770;2022-07-23T08:31:21;0.68;;;0.55;;
15067;SDS011;7633;60.024;18.770;2022-07-23T08:33:47;1.33;;;0.70;;
15067;SDS011;7633;60.024;18.770;2022-07-23T08:36:12;0.65;;;0.52;;
15067;SDS011;7633;60.024;18.770;2022-07-23T08:38:37;0.70;;;0.68;;
15067;SDS011;7633;60.024;18.770;2022-07-23T08:41:03;0.95;;;0.80;;
15067;SDS011;7633;60.024;18.770;2022-07-23T08:43:31;1.20;;;0.60;;
15067;SDS011;7633;60.024;18.770;2022-07-23T08:45:57;1.38;;;0.80;;
15067;SDS011;7633;60.024;18.770;2022-07-23T08:48:24;1.23;;;0.55;;
15067;SDS011;7633;60.024;18.770;2022-07-23T08:50:52;1.42;;;0.70;;
15067;SDS011;7633;60.024;18.770;2022-07-23T08:53:19;1.48;;;0.70;;
15067;SDS011;7633;60.024;18.770;2022-07-23T08:55:46;1.20;;;0.77;;
15067;SDS011;7633;60.024;18.770;2022-07-23T08:58:11;1.23;;;0.75;;
15067;SDS011;7633;60.024;18.770;2022-07-23T09:00:37;1.42;;;0.70;;
15067;SDS011;7633;60.024;18.770;2022-07-23T09:03:02;1.88;;;0.80;;
15067;SDS011;7633;60.024;18.770;2022-07-23T09:05:31;1.35;;;0.70;;
15067;SDS011;7633;60.024;18.770;2022-07-23T09:08:06;1.42;;;0.65;;
15067;SDS011;7633;60.024;18.770;2022-07-23T09:16:13;0.60;;;0.60;;
15067;SDS011;7633;60.024;18.770;2022-07-23T09:18:58;1.27;;;0.80;;
15067;SDS011;7633;60.024;18.770;2022-07-23T09:21:31;0.65;;;0.50;;
15067;SDS011;7633;60.024;18.770;2022-07-23T09:23:57;1.30;;;0.60;;
15067;SDS011;7633;60.024;18.770;2022-07-23T09:26:46;0.68;;;0.50;;
15067;SDS011;7633;60.024;18.770;2022-07-23T09:31:59;0.55;;;0.50;;
15067;SDS011;7633;60.024;18.770;2022-07-23T09:34:34;2.15;;;1.17;;
15067;SDS011;7633;60.024;18.770;2022-07-23T09:37:13;1.45;;;0.82;;
15067;SDS011;7633;60.024;18.770;2022-07-23T09:39:39;0.73;;;0.60;;
15067;SDS011;7633;60.024;18.770;2022-07-23T09:44:44;0.55;;;0.55;;
15067;SDS011;7633;60.024;18.770;2022-07-23T09:47:09;2.35;;;0.90;;
15067;SDS011;7633;60.024;18.770;2022-07-23T09:49:35;1.00;;;0.70;;
15067;SDS011;7633;60.024;18.770;2022-07-23T09:52:01;0.70;;;0.57;;
15067;SDS011;7633;60.024;18.770;2022-07-23T09:54:39;1.38;;;0.60;;
15067;SDS011;7633;60.024;18.770;2022-07-23T09:57:09;0.73;;;0.63;;
15067;SDS011;7633;60.024;18.770;2022-07-23T09:59:38;0.80;;;0.68;;
15067;SDS011;7633;60.024;18.770;2022-07-23T10:02:05;1.20;;;0.63;;
15067;SDS011;7633;60.024;18.770;2022-07-23T10:04:31;0.65;;;0.60;;
15067;SDS011;7633;60.024;18.770;2022-07-23T10:06:57;0.63;;;0.63;;
15067;SDS011;7633;60.024;18.770;2022-07-23T10:09:27;1.45;;;0.73;;
15067;SDS011;7633;60.024;18.770;2022-07-23T10:11:54;1.67;;;0.80;;
15067;SDS011;7633;60.024;18.770;2022-07-23T10:14:21;1.60;;;0.80;;
15067;SDS011;7633;60.024;18.770;2022-07-23T10:16:47;1.20;;;0.70;;
15067;SDS011;7633;60.024;18.770;2022-07-23T10:19:12;0.77;;;0.70;;
15067;SDS011;7633;60.024;18.770;2022-07-23T10:26:40;0.90;;;0.77;;
15067;SDS011;7633;60.024;18.770;2022-07-23T10:29:13;1.80;;;0.70;;
15067;SDS011;7633;60.024;18.770;2022-07-23T10:34:12;0.70;;;0.70;;
15067;SDS011;7633;60.024;18.770;2022-07-23T10:36:42;0.85;;;0.82;;
15067;SDS011;7633;60.024;18.770;2022-07-23T10:39:26;1.25;;;1.08;;
15067;SDS011;7633;60.024;18.770;2022-07-23T10:41:53;0.77;;;0.77;;
15067;SDS011;7633;60.024;18.770;2022-07-23T10:44:37;1.00;;;0.70;;
15067;SDS011;7633;60.024;18.770;2022-07-23T10:47:04;1.00;;;0.90;;
15067;SDS011;7633;60.024;18.770;2022-07-23T10:49:30;1.65;;;1.05;;
15067;SDS011;7633;60.024;18.770;2022-07-23T10:59:31;0.93;;;0.80;;
15067;SDS011;7633;60.024;18.770;2022-07-23T11:02:20;2.60;;;0.98;;
15067;SDS011;7633;60.024;18.770;2022-07-23T11:04:48;1.20;;;0.90;;
15067;SDS011;7633;60.024;18.770;2022-07-23T11:07:15;2.45;;;1.00;;
15067;SDS011;7633;60.024;18.770;2022-07-23T11:09:42;1.88;;;1.00;;
15067;SDS011;7633;60.024;18.770;2022-07-23T11:12:53;3.35;;;1.20;;
15067;SDS011;7633;60.024;18.770;2022-07-23T11:17:24;2.30;;;1.35;;
15067;SDS011;7633;60.024;18.770;2022-07-23T11:22:37;2.65;;;1.20;;
15067;SDS011;7633;60.024;18.770;2022-07-23T11:25:04;2.45;;;1.30;;
15067;SDS011;7633;60.024;18.770;2022-07-23T11:27:37;1.33;;;1.08;;
15067;SDS011;7633;60.024;18.770;2022-07-23T11:30:04;1.70;;;1.00;;
15067;SDS011;7633;60.024;18.770;2022-07-23T11:32:34;2.13;;;0.90;;
15067;SDS011;7633;60.024;18.770;2022-07-23T11:35:02;0.85;;;0.70;;
15067;SDS011;7633;60.024;18.770;2022-07-23T11:37:39;2.30;;;1.27;;
15067;SDS011;7633;60.024;18.770;2022-07-23T11:40:05;0.88;;;0.73;;
15067;SDS011;7633;60.024;18.770;2022-07-23T11:42:32;2.33;;;1.00;;
15067;SDS011;7633;60.024;18.770;2022-07-23T11:44:58;1.88;;;0.90;;
15067;SDS011;7633;60.024;18.770;2022-07-23T11:47:24;1.92;;;0.80;;
15067;SDS011;7633;60.024;18.770;2022-07-23T11:49:53;1.90;;;1.00;;
15067;SDS011;7633;60.024;18.770;2022-07-23T11:52:19;1.95;;;0.90;;
15067;SDS011;7633;60.024;18.770;2022-07-23T11:54:49;1.80;;;0.98;;
15067;SDS011;7633;60.024;18.770;2022-07-23T11:57:18;2.33;;;1.27;;
15067;SDS011;7633;60.024;18.770;2022-07-23T11:59:45;2.25;;;1.00;;
15067;SDS011;7633;60.024;18.770;2022-07-23T12:02:11;1.80;;;1.05;;
15067;SDS011;7633;60.024;18.770;2022-07-23T12:04:46;2.20;;;1.30;;
15067;SDS011;7633;60.024;18.770;2022-07-23T12:07:24;1.60;;;0.80;;
15067;SDS011;7633;60.024;18.770;2022-07-23T12:09:50;1.55;;;1.00;;
15067;SDS011;7633;60.024;18.770;2022-07-23T12:12:15;1.17;;;0.98;;
15067;SDS011;7633;60.024;18.770;2022-07-23T12:14:51;1.77;;;1.10;;
15067;SDS011;7633;60.024;18.770;2022-07-23T12:17:19;0.80;;;0.80;;
15067;SDS011;7633;60.024;18.770;2022-07-23T12:19:46;1.75;;;1.00;;
15067;SDS011;7633;60.024;18.770;2022-07-23T12:22:12;1.50;;;1.17;;
15067;SDS011;7633;60.024;18.770;2022-07-23T12:27:23;1.75;;;1.08;;
15067;SDS011;7633;60.024;18.770;2022-07-23T12:29:49;2.20;;;0.90;;
15067;SDS011;7633;60.024;18.770;2022-07-23T12:32:22;2.25;;;1.33;;
15067;SDS011;7633;60.024;18.770;2022-07-23T12:34:48;1.10;;;0.80;;
15067;SDS011;7633;60.024;18.770;2022-07-23T12:40:27;2.10;;;0.82;;
15067;SDS011;7633;60.024;18.770;2022-07-23T12:43:39;2.28;;;1.05;;
15067;SDS011;7633;60.024;18.770;2022-07-23T12:45:52;1.52;;;1.10;;
15067;SDS011;7633;60.024;18.770;2022-07-23T12:50:47;1.55;;;1.00;;
15067;SDS011;7633;60.024;18.770;2022-07-23T12:53:14;1.02;;;0.85;;
15067;SDS011;7633;60.024;18.770;2022-07-23T12:55:42;1.55;;;0.85;;
15067;SDS011;7633;60.024;18.770;2022-07-23T12:58:12;1.60;;;0.88;;
15067;SDS011;7633;60.024;18.770;2022-07-23T13:00:57;2.25;;;1.10;;
15067;SDS011;7633;60.024;18.770;2022-07-23T13:03:30;1.88;;;0.85;;
15067;SDS011;7633;60.024;18.770;2022-07-23T13:05:56;1.17;;;0.90;;
15067;SDS011;7633;60.024;18.770;2022-07-23T13:08:24;2.08;;;1.08;;
15067;SDS011;7633;60.024;18.770;2022-07-23T13:10:50;2.58;;;0.90;;
15067;SDS011;7633;60.024;18.770;2022-07-23T13:13:20;1.70;;;0.82;;
15067;SDS011;7633;60.024;18.770;2022-07-23T13:15:45;1.00;;;0.80;;
15067;SDS011;7633;60.024;18.770;2022-07-23T13:18:11;1.45;;;0.80;;
15067;SDS011;7633;60.024;18.770;2022-07-23T13:20:37;0.82;;;0.82;;
15067;SDS011;7633;60.024;18.770;2022-07-23T13:23:04;2.05;;;0.85;;
15067;SDS011;7633;60.024;18.770;2022-07-23T13:25:29;1.00;;;0.90;;
15067;SDS011;7633;60.024;18.770;2022-07-23T13:27:56;1.35;;;0.85;;
15067;SDS011;7633;60.024;18.770;2022-07-23T13:30:21;1.58;;;0.73;;
15067;SDS011;7633;60.024;18.770;2022-07-23T13:32:48;1.60;;;1.08;;
15067;SDS011;7633;60.024;18.770;2022-07-23T13:35:13;1.80;;;0.90;;
15067;SDS011;7633;60.024;18.770;2022-07-23T13:37:39;1.00;;;0.90;;
15067;SDS011;7633;60.024;18.770;2022-07-23T13:40:04;1.42;;;0.90;;
15067;SDS011;7633;60.024;18.770;2022-07-23T13:42:30;1.15;;;1.05;;
15067;SDS011;7633;60.024;18.770;2022-07-23T13:44:55;1.30;;;1.05;;
15067;SDS011;7633;60.024;18.770;2022-07-23T13:47:21;1.48;;;0.80;;
15067;SDS011;7633;60.024;18.770;2022-07-23T13:49:46;1.23;;;1.08;;
15067;SDS011;7633;60.024;18.770;2022-07-23T13:52:11;0.95;;;0.82;;
15067;SDS011;7633;60.024;18.770;2022-07-23T13:54:37;2.00;;;1.10;;
15067;SDS011;7633;60.024;18.770;2022-07-23T13:57:02;1.30;;;0.90;;
15067;SDS011;7633;60.024;18.770;2022-07-23T13:59:30;1.30;;;1.20;;
15067;SDS011;7633;60.024;18.770;2022-07-23T14:01:56;2.05;;;1.00;;
15067;SDS011;7633;60.024;18.770;2022-07-23T14:04:21;1.58;;;1.00;;
15067;SDS011;7633;60.024;18.770;2022-07-23T14:06:47;1.00;;;0.85;;
15067;SDS011;7633;60.024;18.770;2022-07-23T14:09:12;1.17;;;1.00;;
15067;SDS011;7633;60.024;18.770;2022-07-23T14:11:38;1.95;;;0.90;;
15067;SDS011;7633;60.024;18.770;2022-07-23T14:14:04;1.55;;;1.00;;
15067;SDS011;7633;60.024;18.770;2022-07-23T14:16:29;1.25;;;0.90;;
15067;SDS011;7633;60.024;18.770;2022-07-23T14:18:54;0.70;;;0.70;;
15067;SDS011;7633;60.024;18.770;2022-07-23T14:21:20;1.17;;;0.90;;
15067;SDS011;7633;60.024;18.770;2022-07-23T14:23:45;3.13;;;0.90;;
15067;SDS011;7633;60.024;18.770;2022-07-23T14:26:10;1.17;;;0.95;;
15067;SDS011;7633;60.024;18.770;2022-07-23T14:28:36;1.35;;;0.93;;
15067;SDS011;7633;60.024;18.770;2022-07-23T14:31:01;1.27;;;0.80;;
15067;SDS011;7633;60.024;18.770;2022-07-23T14:33:27;1.92;;;1.05;;
15067;SDS011;7633;60.024;18.770;2022-07-23T14:35:52;0.82;;;0.73;;
15067;SDS011;7633;60.024;18.770;2022-07-23T14:38:18;1.38;;;0.70;;
15067;SDS011;7633;60.024;18.770;2022-07-23T14:40:43;1.00;;;0.80;;
15067;SDS011;7633;60.024;18.770;2022-07-23T14:43:08;1.15;;;0.80;;
15067;SDS011;7633;60.024;18.770;2022-07-23T14:45:34;0.85;;;0.85;;
15067;SDS011;7633;60.024;18.770;2022-07-23T14:47:59;1.10;;;0.90;;
15067;SDS011;7633;60.024;18.770;2022-07-23T14:50:25;2.40;;;1.00;;
15067;SDS011;7633;60.024;18.770;2022-07-23T14:52:50;1.05;;;0.98;;
15067;SDS011;7633;60.024;18.770;2022-07-23T14:55:15;1.85;;;0.98;;
15067;SDS011;7633;60.024;18.770;2022-07-23T14:57:43;1.10;;;0.90;;
15067;SDS011;7633;60.024;18.770;2022-07-23T15:00:08;0.80;;;0.80;;
15067;SDS011;7633;60.024;18.770;2022-07-23T15:02:34;1.40;;;0.88;;
15067;SDS011;7633;60.024;18.770;2022-07-23T15:04:59;0.82;;;0.82;;
15067;SDS011;7633;60.024;18.770;2022-07-23T15:07:26;1.85;;;1.05;;
15067;SDS011;7633;60.024;18.770;2022-07-23T15:09:52;0.95;;;0.80;;
15067;SDS011;7633;60.024;18.770;2022-07-23T15:12:17;2.30;;;1.00;;
15067;SDS011;7633;60.024;18.770;2022-07-23T15:14:42;1.17;;;0.80;;
15067;SDS011;7633;60.024;18.770;2022-07-23T15:17:08;0.75;;;0.75;;
15067;SDS011;7633;60.024;18.770;2022-07-23T15:19:33;0.80;;;0.70;;
15067;SDS011;7633;60.024;18.770;2022-07-23T15:21:59;1.60;;;0.80;;
15067;SDS011;7633;60.024;18.770;2022-07-23T15:24:24;0.70;;;0.70;;